sensor_id;sensor_type;location;lat;lon;timestamp;P1;durP1;ratioP1;P2;durP2;ratioP2
36989;SDS011;22898;52.102;5.776;2024-01-07T00:01:58;12.90;;;6.97;;
36989;SDS011;22898;52.102;5.776;2024-01-07T00:04:23;17.08;;;8.27;;
36989;SDS011;22898;52.102;5.776;2024-01-07T00:06:49;15.30;;;6.78;;
36989;SDS011;22898;52.102;5.776;2024-01-07T00:09:15;21.17;;;8.50;;
36989;SDS011;22898;52.102;5.776;2024-01-07T00:11:41;22.85;;;11.10;;
36989;SDS011;22898;52.102;5.776;2024-01-07T00:14:07;12.02;;;6.05;;
36989;SDS011;22898;52.102;5.776;2024-01-07T00:16:33;17.98;;;8.55;;
36989;SDS011;22898;52.102;5.776;2024-01-07T00:18:59;14.23;;;7.82;;
36989;SDS011;22898;52.102;5.776;2024-01-07T00:21:25;17.05;;;7.97;;
36989;SDS011;22898;52.102;5.776;2024-01-07T00:23:50;18.40;;;9.07;;
36989;SDS011;22898;52.102;5.776;2024-01-07T00:26:16;19.70;;;8.82;;
36989;SDS011;22898;52.102;5.776;2024-01-07T00:28:41;22.10;;;9.25;;
36989;SDS011;22898;52.102;5.776;2024-01-07T00:31:07;21.33;;;9.85;;
36989;SDS011;22898;52.102;5.776;2024-01-07T00:33:34;20.85;;;8.90;;
36989;SDS011;22898;52.102;5.776;2024-01-07T00:36:02;22.17;;;9.13;;
36989;SDS011;22898;52.102;5.776;2024-01-07T00:38:28;17.48;;;8.65;;
36989;SDS011;22898;52.102;5.776;2024-01-07T00:40:54;20.02;;;8.38;;
36989;SDS011;22898;52.102;5.776;2024-01-07T00:43:19;21.13;;;9.13;;
36989;SDS011;22898;52.102;5.776;2024-01-07T00:45:45;23.27;;;9.35;;
36989;SDS011;22898;52.102;5.776;2024-01-07T00:48:10;16.13;;;8.23;;
36989;SDS011;22898;52.102;5.776;2024-01-07T00:50:36;22.42;;;8.10;;
36989;SDS011;22898;52.102;5.776;2024-01-07T00:53:02;18.95;;;8.57;;
36989;SDS011;22898;52.102;5.776;2024-01-07T00:55:27;19.17;;;8.60;;
36989;SDS011;22898;52.102;5.776;2024-01-07T00:57:53;18.23;;;8.90;;
36989;SDS011;22898;52.102;5.776;2024-01-07T01:00:19;19.52;;;8.43;;
36989;SDS011;22898;52.102;5.776;2024-01-07T01:02:45;19.15;;;8.88;;
36989;SDS011;22898;52.102;5.776;2024-01-07T01:05:10;17.58;;;9.45;;
36989;SDS011;22898;52.102;5.776;2024-01-07T01:07:36;16.90;;;9.95;;
36989;SDS011;22898;52.102;5.776;2024-01-07T01:10:02;16.80;;;8.82;;
36989;SDS011;22898;52.102;5.776;2024-01-07T01:12:28;18.90;;;9.75;;
36989;SDS011;22898;52.102;5.776;2024-01-07T01:14:53;15.15;;;8.38;;
36989;SDS011;22898;52.102;5.776;2024-01-07T01:17:19;17.48;;;9.00;;
36989;SDS011;22898;52.102;5.776;2024-01-07T01:19:45;16.30;;;8.15;;
36989;SDS011;22898;52.102;5.776;2024-01-07T01:22:11;16.55;;;7.57;;
36989;SDS011;22898;52.102;5.776;2024-01-07T01:24:36;16.92;;;8.45;;
36989;SDS011;22898;52.102;5.776;2024-01-07T01:27:02;13.48;;;7.65;;
36989;SDS011;22898;52.102;5.776;2024-01-07T01:29:28;16.17;;;8.07;;
36989;SDS011;22898;52.102;5.776;2024-01-07T01:31:53;18.48;;;8.05;;
36989;SDS011;22898;52.102;5.776;2024-01-07T01:34:19;14.30;;;7.13;;
36989;SDS011;22898;52.102;5.776;2024-01-07T01:36:44;22.98;;;9.80;;
36989;SDS011;22898;52.102;5.776;2024-01-07T01:39:10;17.42;;;7.97;;
36989;SDS011;22898;52.102;5.776;2024-01-07T01:41:36;14.60;;;7.63;;
36989;SDS011;22898;52.102;5.776;2024-01-07T01:44:01;16.65;;;9.10;;
36989;SDS011;22898;52.102;5.776;2024-01-07T01:46:28;18.98;;;8.95;;
36989;SDS011;22898;52.102;5.776;2024-01-07T01:48:54;11.13;;;7.50;;
36989;SDS011;22898;52.102;5.776;2024-01-07T01:51:21;17.00;;;7.13;;
36989;SDS011;22898;52.102;5.776;2024-01-07T01:53:47;18.42;;;8.02;;
36989;SDS011;22898;52.102;5.776;2024-01-07T01:56:14;16.27;;;8.13;;
36989;SDS011;22898;52.102;5.776;2024-01-07T01:58:45;11.98;;;7.35;;
36989;SDS011;22898;52.102;5.776;2024-01-07T02:01:11;15.15;;;7.80;;
36989;SDS011;22898;52.102;5.776;2024-01-07T02:03:37;15.30;;;7.55;;
36989;SDS011;22898;52.102;5.776;2024-01-07T02:06:03;18.55;;;7.50;;
36989;SDS011;22898;52.102;5.776;2024-01-07T02:08:29;17.15;;;8.02;;
36989;SDS011;22898;52.102;5.776;2024-01-07T02:10:55;13.23;;;7.13;;
36989;SDS011;22898;52.102;5.776;2024-01-07T02:13:20;15.27;;;7.40;;
36989;SDS011;22898;52.102;5.776;2024-01-07T02:15:46;16.13;;;7.70;;
36989;SDS011;22898;52.102;5.776;2024-01-07T02:18:12;15.07;;;7.53;;
36989;SDS011;22898;52.102;5.776;2024-01-07T02:20:37;13.93;;;8.18;;
36989;SDS011;22898;52.102;5.776;2024-01-07T02:23:03;18.30;;;8.55;;
36989;SDS011;22898;52.102;5.776;2024-01-07T02:25:29;21.20;;;8.32;;
36989;SDS011;22898;52.102;5.776;2024-01-07T02:28:00;20.92;;;8.20;;
36989;SDS011;22898;52.102;5.776;2024-01-07T02:30:25;31.27;;;9.75;;
36989;SDS011;22898;52.102;5.776;2024-01-07T02:32:52;16.52;;;8.10;;
36989;SDS011;22898;52.102;5.776;2024-01-07T02:35:17;20.58;;;9.30;;
36989;SDS011;22898;52.102;5.776;2024-01-07T02:37:43;23.90;;;11.05;;
36989;SDS011;22898;52.102;5.776;2024-01-07T02:40:09;18.60;;;7.47;;
36989;SDS011;22898;52.102;5.776;2024-01-07T02:42:35;17.52;;;8.07;;
36989;SDS011;22898;52.102;5.776;2024-01-07T02:45:00;14.18;;;9.05;;
36989;SDS011;22898;52.102;5.776;2024-01-07T02:47:26;18.13;;;9.48;;
36989;SDS011;22898;52.102;5.776;2024-01-07T02:49:52;22.08;;;10.38;;
36989;SDS011;22898;52.102;5.776;2024-01-07T02:52:17;17.55;;;8.95;;
36989;SDS011;22898;52.102;5.776;2024-01-07T02:54:43;17.17;;;8.30;;
36989;SDS011;22898;52.102;5.776;2024-01-07T02:57:09;16.00;;;7.15;;
36989;SDS011;22898;52.102;5.776;2024-01-07T02:59:35;18.95;;;9.38;;
36989;SDS011;22898;52.102;5.776;2024-01-07T03:02:00;14.48;;;7.32;;
36989;SDS011;22898;52.102;5.776;2024-01-07T03:04:26;18.77;;;8.20;;
36989;SDS011;22898;52.102;5.776;2024-01-07T03:06:51;15.93;;;8.30;;
36989;SDS011;22898;52.102;5.776;2024-01-07T03:09:17;19.05;;;10.32;;
36989;SDS011;22898;52.102;5.776;2024-01-07T03:11:42;19.67;;;9.02;;
36989;SDS011;22898;52.102;5.776;2024-01-07T03:14:09;18.27;;;8.20;;
36989;SDS011;22898;52.102;5.776;2024-01-07T03:16:35;13.18;;;8.00;;
36989;SDS011;22898;52.102;5.776;2024-01-07T03:19:01;16.60;;;8.05;;
36989;SDS011;22898;52.102;5.776;2024-01-07T03:21:27;16.75;;;7.03;;
36989;SDS011;22898;52.102;5.776;2024-01-07T03:23:53;16.85;;;7.72;;
36989;SDS011;22898;52.102;5.776;2024-01-07T03:26:18;14.38;;;7.70;;
36989;SDS011;22898;52.102;5.776;2024-01-07T03:28:44;15.77;;;7.82;;
36989;SDS011;22898;52.102;5.776;2024-01-07T03:31:14;14.63;;;7.40;;
36989;SDS011;22898;52.102;5.776;2024-01-07T03:33:41;17.05;;;8.23;;
36989;SDS011;22898;52.102;5.776;2024-01-07T03:36:08;13.32;;;5.90;;
36989;SDS011;22898;52.102;5.776;2024-01-07T03:38:34;14.25;;;7.22;;
36989;SDS011;22898;52.102;5.776;2024-01-07T03:41:00;17.33;;;8.43;;
36989;SDS011;22898;52.102;5.776;2024-01-07T03:43:26;16.23;;;7.80;;
36989;SDS011;22898;52.102;5.776;2024-01-07T03:45:52;15.88;;;7.68;;
36989;SDS011;22898;52.102;5.776;2024-01-07T03:48:17;15.82;;;7.82;;
36989;SDS011;22898;52.102;5.776;2024-01-07T03:50:43;17.60;;;8.45;;
36989;SDS011;22898;52.102;5.776;2024-01-07T03:53:09;13.95;;;8.18;;
36989;SDS011;22898;52.102;5.776;2024-01-07T03:55:34;16.77;;;8.05;;
36989;SDS011;22898;52.102;5.776;2024-01-07T03:58:00;16.65;;;7.55;;
36989;SDS011;22898;52.102;5.776;2024-01-07T04:00:26;16.20;;;7.10;;
36989;SDS011;22898;52.102;5.776;2024-01-07T04:02:51;15.30;;;8.10;;
36989;SDS011;22898;52.102;5.776;2024-01-07T04:05:17;13.32;;;7.03;;
36989;SDS011;22898;52.102;5.776;2024-01-07T04:07:43;18.98;;;9.45;;
36989;SDS011;22898;52.102;5.776;2024-01-07T04:10:08;14.68;;;7.65;;
36989;SDS011;22898;52.102;5.776;2024-01-07T04:12:34;10.80;;;6.97;;
36989;SDS011;22898;52.102;5.776;2024-01-07T04:15:01;14.48;;;8.07;;
36989;SDS011;22898;52.102;5.776;2024-01-07T04:17:26;16.05;;;7.68;;
36989;SDS011;22898;52.102;5.776;2024-01-07T04:19:52;15.50;;;7.72;;
36989;SDS011;22898;52.102;5.776;2024-01-07T04:22:18;15.68;;;6.43;;
36989;SDS011;22898;52.102;5.776;2024-01-07T04:24:43;16.13;;;9.65;;
36989;SDS011;22898;52.102;5.776;2024-01-07T04:27:09;14.38;;;8.30;;
36989;SDS011;22898;52.102;5.776;2024-01-07T04:29:35;16.73;;;7.90;;
36989;SDS011;22898;52.102;5.776;2024-01-07T04:32:01;13.25;;;7.65;;
36989;SDS011;22898;52.102;5.776;2024-01-07T04:34:26;13.98;;;7.70;;
36989;SDS011;22898;52.102;5.776;2024-01-07T04:36:52;12.32;;;5.95;;
36989;SDS011;22898;52.102;5.776;2024-01-07T04:39:18;10.90;;;6.13;;
36989;SDS011;22898;52.102;5.776;2024-01-07T04:41:43;10.30;;;6.75;;
36989;SDS011;22898;52.102;5.776;2024-01-07T04:44:09;11.18;;;5.40;;
36989;SDS011;22898;52.102;5.776;2024-01-07T04:46:37;12.93;;;7.07;;
36989;SDS011;22898;52.102;5.776;2024-01-07T04:49:03;11.77;;;6.45;;
36989;SDS011;22898;52.102;5.776;2024-01-07T04:51:30;8.50;;;6.03;;
36989;SDS011;22898;52.102;5.776;2024-01-07T04:53:56;9.32;;;5.55;;
36989;SDS011;22898;52.102;5.776;2024-01-07T04:56:22;14.25;;;6.80;;
36989;SDS011;22898;52.102;5.776;2024-01-07T04:58:48;12.23;;;6.32;;
36989;SDS011;22898;52.102;5.776;2024-01-07T05:01:13;10.27;;;5.95;;
36989;SDS011;22898;52.102;5.776;2024-01-07T05:03:39;16.95;;;6.65;;
36989;SDS011;22898;52.102;5.776;2024-01-07T05:06:05;12.85;;;7.13;;
36989;SDS011;22898;52.102;5.776;2024-01-07T05:08:33;11.07;;;6.10;;
36989;SDS011;22898;52.102;5.776;2024-01-07T05:10:58;11.25;;;5.93;;
36989;SDS011;22898;52.102;5.776;2024-01-07T05:13:24;12.30;;;7.20;;
36989;SDS011;22898;52.102;5.776;2024-01-07T05:15:50;8.20;;;5.00;;
36989;SDS011;22898;52.102;5.776;2024-01-07T05:18:24;15.88;;;6.78;;
36989;SDS011;22898;52.102;5.776;2024-01-07T05:20:50;8.75;;;6.30;;
36989;SDS011;22898;52.102;5.776;2024-01-07T05:23:16;15.23;;;5.68;;
36989;SDS011;22898;52.102;5.776;2024-01-07T05:25:42;10.75;;;5.70;;
36989;SDS011;22898;52.102;5.776;2024-01-07T05:28:09;9.73;;;5.38;;
36989;SDS011;22898;52.102;5.776;2024-01-07T05:30:35;12.48;;;5.90;;
36989;SDS011;22898;52.102;5.776;2024-01-07T05:33:01;8.75;;;5.40;;
36989;SDS011;22898;52.102;5.776;2024-01-07T05:35:26;12.25;;;6.85;;
36989;SDS011;22898;52.102;5.776;2024-01-07T05:37:52;10.63;;;6.00;;
36989;SDS011;22898;52.102;5.776;2024-01-07T05:40:17;13.73;;;6.22;;
36989;SDS011;22898;52.102;5.776;2024-01-07T05:42:43;9.85;;;5.90;;
36989;SDS011;22898;52.102;5.776;2024-01-07T05:45:09;9.43;;;6.50;;
36989;SDS011;22898;52.102;5.776;2024-01-07T05:47:34;7.22;;;4.45;;
36989;SDS011;22898;52.102;5.776;2024-01-07T05:50:00;13.25;;;6.95;;
36989;SDS011;22898;52.102;5.776;2024-01-07T05:52:27;11.65;;;5.50;;
36989;SDS011;22898;52.102;5.776;2024-01-07T05:54:52;10.93;;;5.07;;
36989;SDS011;22898;52.102;5.776;2024-01-07T05:57:18;13.30;;;5.40;;
36989;SDS011;22898;52.102;5.776;2024-01-07T05:59:44;10.43;;;5.65;;
36989;SDS011;22898;52.102;5.776;2024-01-07T06:02:11;11.77;;;4.88;;
36989;SDS011;22898;52.102;5.776;2024-01-07T06:04:37;9.20;;;5.15;;
36989;SDS011;22898;52.102;5.776;2024-01-07T06:07:03;9.38;;;5.00;;
36989;SDS011;22898;52.102;5.776;2024-01-07T06:09:29;8.23;;;5.22;;
36989;SDS011;22898;52.102;5.776;2024-01-07T06:11:55;11.68;;;5.90;;
36989;SDS011;22898;52.102;5.776;2024-01-07T06:14:22;8.32;;;4.18;;
36989;SDS011;22898;52.102;5.776;2024-01-07T06:16:47;12.27;;;6.13;;
36989;SDS011;22898;52.102;5.776;2024-01-07T06:19:13;8.13;;;4.05;;
36989;SDS011;22898;52.102;5.776;2024-01-07T06:21:41;9.13;;;5.28;;
36989;SDS011;22898;52.102;5.776;2024-01-07T06:24:10;7.45;;;4.43;;
36989;SDS011;22898;52.102;5.776;2024-01-07T06:26:36;7.70;;;4.43;;
36989;SDS011;22898;52.102;5.776;2024-01-07T06:29:02;8.95;;;5.47;;
36989;SDS011;22898;52.102;5.776;2024-01-07T06:31:28;6.55;;;3.65;;
36989;SDS011;22898;52.102;5.776;2024-01-07T06:33:53;9.20;;;4.53;;
36989;SDS011;22898;52.102;5.776;2024-01-07T06:36:21;8.63;;;4.78;;
36989;SDS011;22898;52.102;5.776;2024-01-07T06:38:47;11.10;;;6.25;;
36989;SDS011;22898;52.102;5.776;2024-01-07T06:41:13;10.13;;;5.00;;
36989;SDS011;22898;52.102;5.776;2024-01-07T06:43:39;9.10;;;4.85;;
36989;SDS011;22898;52.102;5.776;2024-01-07T06:46:05;10.57;;;5.93;;
36989;SDS011;22898;52.102;5.776;2024-01-07T06:48:30;12.55;;;6.22;;
36989;SDS011;22898;52.102;5.776;2024-01-07T06:50:57;8.77;;;5.70;;
36989;SDS011;22898;52.102;5.776;2024-01-07T06:53:22;11.60;;;4.97;;
36989;SDS011;22898;52.102;5.776;2024-01-07T06:55:48;8.77;;;5.18;;
36989;SDS011;22898;52.102;5.776;2024-01-07T06:58:14;6.97;;;4.68;;
36989;SDS011;22898;52.102;5.776;2024-01-07T07:00:39;12.23;;;5.47;;
36989;SDS011;22898;52.102;5.776;2024-01-07T07:03:05;14.25;;;5.65;;
36989;SDS011;22898;52.102;5.776;2024-01-07T07:05:31;10.50;;;4.97;;
36989;SDS011;22898;52.102;5.776;2024-01-07T07:07:57;10.35;;;6.20;;
36989;SDS011;22898;52.102;5.776;2024-01-07T07:10:23;9.35;;;6.38;;
36989;SDS011;22898;52.102;5.776;2024-01-07T07:12:48;13.10;;;5.97;;
36989;SDS011;22898;52.102;5.776;2024-01-07T07:15:15;12.18;;;6.82;;
36989;SDS011;22898;52.102;5.776;2024-01-07T07:17:42;4.95;;;3.65;;
36989;SDS011;22898;52.102;5.776;2024-01-07T07:20:07;8.68;;;5.32;;
36989;SDS011;22898;52.102;5.776;2024-01-07T07:22:34;11.68;;;6.75;;
36989;SDS011;22898;52.102;5.776;2024-01-07T07:25:00;10.75;;;5.53;;
36989;SDS011;22898;52.102;5.776;2024-01-07T07:27:25;9.80;;;5.70;;
36989;SDS011;22898;52.102;5.776;2024-01-07T07:29:51;10.13;;;4.47;;
36989;SDS011;22898;52.102;5.776;2024-01-07T07:32:17;12.25;;;6.40;;
36989;SDS011;22898;52.102;5.776;2024-01-07T07:34:43;11.35;;;6.72;;
36989;SDS011;22898;52.102;5.776;2024-01-07T07:37:08;7.65;;;4.60;;
36989;SDS011;22898;52.102;5.776;2024-01-07T07:39:35;13.70;;;5.70;;
36989;SDS011;22898;52.102;5.776;2024-01-07T07:42:00;11.25;;;5.18;;
36989;SDS011;22898;52.102;5.776;2024-01-07T07:44:26;7.60;;;4.63;;
36989;SDS011;22898;52.102;5.776;2024-01-07T07:46:52;9.40;;;5.15;;
36989;SDS011;22898;52.102;5.776;2024-01-07T07:49:17;4.97;;;3.75;;
36989;SDS011;22898;52.102;5.776;2024-01-07T07:51:43;13.13;;;4.57;;
36989;SDS011;22898;52.102;5.776;2024-01-07T07:54:09;5.88;;;3.45;;
36989;SDS011;22898;52.102;5.776;2024-01-07T07:56:34;8.05;;;4.25;;
36989;SDS011;22898;52.102;5.776;2024-01-07T07:59:01;6.18;;;3.83;;
36989;SDS011;22898;52.102;5.776;2024-01-07T08:01:27;9.10;;;4.03;;
36989;SDS011;22898;52.102;5.776;2024-01-07T08:03:53;6.75;;;4.03;;
36989;SDS011;22898;52.102;5.776;2024-01-07T08:06:19;10.05;;;4.18;;
36989;SDS011;22898;52.102;5.776;2024-01-07T08:08:45;4.55;;;3.22;;
36989;SDS011;22898;52.102;5.776;2024-01-07T08:11:10;5.28;;;3.63;;
36989;SDS011;22898;52.102;5.776;2024-01-07T08:13:36;5.57;;;3.20;;
36989;SDS011;22898;52.102;5.776;2024-01-07T08:16:03;6.25;;;3.70;;
36989;SDS011;22898;52.102;5.776;2024-01-07T08:18:29;6.70;;;4.07;;
36989;SDS011;22898;52.102;5.776;2024-01-07T08:20:55;8.20;;;4.00;;
36989;SDS011;22898;52.102;5.776;2024-01-07T08:23:20;7.70;;;4.40;;
36989;SDS011;22898;52.102;5.776;2024-01-07T08:25:46;7.03;;;4.00;;
36989;SDS011;22898;52.102;5.776;2024-01-07T08:28:12;8.35;;;4.43;;
36989;SDS011;22898;52.102;5.776;2024-01-07T08:30:38;5.68;;;3.35;;
36989;SDS011;22898;52.102;5.776;2024-01-07T08:33:03;6.13;;;3.63;;
36989;SDS011;22898;52.102;5.776;2024-01-07T08:35:29;8.32;;;3.83;;
36989;SDS011;22898;52.102;5.776;2024-01-07T08:37:55;8.30;;;5.68;;
36989;SDS011;22898;52.102;5.776;2024-01-07T08:40:20;6.18;;;2.97;;
36989;SDS011;22898;52.102;5.776;2024-01-07T08:42:46;8.73;;;4.07;;
36989;SDS011;22898;52.102;5.776;2024-01-07T08:45:12;7.55;;;3.45;;
36989;SDS011;22898;52.102;5.776;2024-01-07T08:47:37;8.60;;;3.25;;
36989;SDS011;22898;52.102;5.776;2024-01-07T08:50:04;6.15;;;3.78;;
36989;SDS011;22898;52.102;5.776;2024-01-07T08:52:30;6.97;;;3.30;;
36989;SDS011;22898;52.102;5.776;2024-01-07T08:54:56;5.57;;;3.10;;
36989;SDS011;22898;52.102;5.776;2024-01-07T08:57:21;5.32;;;3.45;;
36989;SDS011;22898;52.102;5.776;2024-01-07T08:59:47;7.05;;;3.70;;
36989;SDS011;22898;52.102;5.776;2024-01-07T09:02:13;8.10;;;3.95;;
36989;SDS011;22898;52.102;5.776;2024-01-07T09:04:39;7.03;;;3.60;;
36989;SDS011;22898;52.102;5.776;2024-01-07T09:07:04;4.88;;;3.20;;
36989;SDS011;22898;52.102;5.776;2024-01-07T09:09:30;5.55;;;3.55;;
36989;SDS011;22898;52.102;5.776;2024-01-07T09:11:55;8.75;;;3.13;;
36989;SDS011;22898;52.102;5.776;2024-01-07T09:14:22;5.45;;;2.95;;
36989;SDS011;22898;52.102;5.776;2024-01-07T09:16:50;6.45;;;3.53;;
36989;SDS011;22898;52.102;5.776;2024-01-07T09:19:16;7.88;;;3.67;;
36989;SDS011;22898;52.102;5.776;2024-01-07T09:21:42;7.90;;;4.95;;
36989;SDS011;22898;52.102;5.776;2024-01-07T09:24:08;6.00;;;2.92;;
36989;SDS011;22898;52.102;5.776;2024-01-07T09:26:34;5.38;;;3.58;;
36989;SDS011;22898;52.102;5.776;2024-01-07T09:29:00;5.90;;;3.22;;
36989;SDS011;22898;52.102;5.776;2024-01-07T09:31:26;5.85;;;3.75;;
36989;SDS011;22898;52.102;5.776;2024-01-07T09:33:52;6.70;;;3.60;;
36989;SDS011;22898;52.102;5.776;2024-01-07T09:36:18;4.22;;;3.05;;
36989;SDS011;22898;52.102;5.776;2024-01-07T09:38:43;8.32;;;3.83;;
36989;SDS011;22898;52.102;5.776;2024-01-07T09:41:09;5.63;;;3.35;;
36989;SDS011;22898;52.102;5.776;2024-01-07T09:43:35;5.70;;;2.92;;
36989;SDS011;22898;52.102;5.776;2024-01-07T09:46:01;6.50;;;3.72;;
36989;SDS011;22898;52.102;5.776;2024-01-07T09:48:28;13.50;;;4.90;;
36989;SDS011;22898;52.102;5.776;2024-01-07T09:50:54;9.15;;;5.00;;
36989;SDS011;22898;52.102;5.776;2024-01-07T09:53:23;7.13;;;3.83;;
36989;SDS011;22898;52.102;5.776;2024-01-07T09:58:44;4.63;;;2.45;;
36989;SDS011;22898;52.102;5.776;2024-01-07T10:01:14;7.38;;;3.13;;
36989;SDS011;22898;52.102;5.776;2024-01-07T10:03:42;3.45;;;2.75;;
36989;SDS011;22898;52.102;5.776;2024-01-07T10:06:08;4.82;;;2.50;;
36989;SDS011;22898;52.102;5.776;2024-01-07T10:08:35;4.20;;;2.42;;
36989;SDS011;22898;52.102;5.776;2024-01-07T10:11:00;4.70;;;2.42;;
36989;SDS011;22898;52.102;5.776;2024-01-07T10:13:27;4.93;;;3.83;;
36989;SDS011;22898;52.102;5.776;2024-01-07T10:15:53;5.88;;;2.80;;
36989;SDS011;22898;52.102;5.776;2024-01-07T10:18:19;8.18;;;3.88;;
36989;SDS011;22898;52.102;5.776;2024-01-07T10:20:45;5.97;;;2.45;;
36989;SDS011;22898;52.102;5.776;2024-01-07T10:23:11;3.80;;;2.40;;
36989;SDS011;22898;52.102;5.776;2024-01-07T10:25:37;4.60;;;1.55;;
36989;SDS011;22898;52.102;5.776;2024-01-07T10:28:02;4.00;;;2.33;;
36989;SDS011;22898;52.102;5.776;2024-01-07T10:30:28;3.05;;;1.92;;
36989;SDS011;22898;52.102;5.776;2024-01-07T10:32:57;9.57;;;2.97;;
36989;SDS011;22898;52.102;5.776;2024-01-07T10:35:33;5.28;;;2.55;;
36989;SDS011;22898;52.102;5.776;2024-01-07T10:38:01;3.67;;;2.05;;
36989;SDS011;22898;52.102;5.776;2024-01-07T10:40:27;3.67;;;2.50;;
36989;SDS011;22898;52.102;5.776;2024-01-07T10:42:55;2.53;;;1.90;;
36989;SDS011;22898;52.102;5.776;2024-01-07T10:45:22;3.78;;;2.35;;
36989;SDS011;22898;52.102;5.776;2024-01-07T10:47:49;2.90;;;1.75;;
36989;SDS011;22898;52.102;5.776;2024-01-07T10:50:18;3.60;;;2.15;;
36989;SDS011;22898;52.102;5.776;2024-01-07T10:52:57;3.05;;;2.17;;
36989;SDS011;22898;52.102;5.776;2024-01-07T10:55:28;4.15;;;2.42;;
36989;SDS011;22898;52.102;5.776;2024-01-07T11:00:29;4.03;;;2.10;;
36989;SDS011;22898;52.102;5.776;2024-01-07T11:03:14;4.40;;;2.47;;
36989;SDS011;22898;52.102;5.776;2024-01-07T11:05:52;4.45;;;1.60;;
36989;SDS011;22898;52.102;5.776;2024-01-07T11:08:41;2.63;;;1.40;;
36989;SDS011;22898;52.102;5.776;2024-01-07T11:11:21;2.67;;;1.73;;
36989;SDS011;22898;52.102;5.776;2024-01-07T11:13:51;3.00;;;1.93;;
36989;SDS011;22898;52.102;5.776;2024-01-07T11:16:40;2.08;;;1.05;;
36989;SDS011;22898;52.102;5.776;2024-01-07T11:19:14;2.80;;;1.77;;
36989;SDS011;22898;52.102;5.776;2024-01-07T11:21:40;3.85;;;2.00;;
36989;SDS011;22898;52.102;5.776;2024-01-07T11:24:05;1.58;;;1.08;;
36989;SDS011;22898;52.102;5.776;2024-01-07T11:26:31;2.70;;;1.77;;
36989;SDS011;22898;52.102;5.776;2024-01-07T11:28:57;2.20;;;1.30;;
36989;SDS011;22898;52.102;5.776;2024-01-07T11:34:04;2.83;;;1.30;;
36989;SDS011;22898;52.102;5.776;2024-01-07T11:36:30;2.65;;;1.30;;
36989;SDS011;22898;52.102;5.776;2024-01-07T11:38:56;3.33;;;1.40;;
36989;SDS011;22898;52.102;5.776;2024-01-07T11:41:22;1.10;;;0.95;;
36989;SDS011;22898;52.102;5.776;2024-01-07T11:43:54;4.03;;;1.70;;
36989;SDS011;22898;52.102;5.776;2024-01-07T11:46:25;0.70;;;0.70;;
36989;SDS011;22898;52.102;5.776;2024-01-07T11:48:55;2.63;;;1.77;;
36989;SDS011;22898;52.102;5.776;2024-01-07T11:51:31;3.00;;;1.40;;
36989;SDS011;22898;52.102;5.776;2024-01-07T11:53:57;2.55;;;1.30;;
36989;SDS011;22898;52.102;5.776;2024-01-07T11:56:24;3.13;;;1.17;;
36989;SDS011;22898;52.102;5.776;2024-01-07T11:58:51;1.20;;;1.10;;
36989;SDS011;22898;52.102;5.776;2024-01-07T12:01:17;1.08;;;0.95;;
36989;SDS011;22898;52.102;5.776;2024-01-07T12:03:43;3.42;;;1.58;;
36989;SDS011;22898;52.102;5.776;2024-01-07T12:06:10;1.95;;;1.50;;
36989;SDS011;22898;52.102;5.776;2024-01-07T12:08:39;3.10;;;1.00;;
36989;SDS011;22898;52.102;5.776;2024-01-07T12:11:06;2.30;;;1.20;;
36989;SDS011;22898;52.102;5.776;2024-01-07T12:13:31;1.58;;;1.30;;
36989;SDS011;22898;52.102;5.776;2024-01-07T12:15:57;2.65;;;1.45;;
36989;SDS011;22898;52.102;5.776;2024-01-07T12:18:23;4.15;;;1.15;;
36989;SDS011;22898;52.102;5.776;2024-01-07T12:20:57;4.88;;;1.70;;
36989;SDS011;22898;52.102;5.776;2024-01-07T12:23:23;5.72;;;1.35;;
36989;SDS011;22898;52.102;5.776;2024-01-07T12:25:53;3.67;;;1.35;;
36989;SDS011;22898;52.102;5.776;2024-01-07T12:28:20;1.80;;;1.20;;
36989;SDS011;22898;52.102;5.776;2024-01-07T12:30:49;3.40;;;0.98;;
36989;SDS011;22898;52.102;5.776;2024-01-07T12:33:21;1.33;;;0.80;;
36989;SDS011;22898;52.102;5.776;2024-01-07T12:35:47;4.38;;;0.88;;
36989;SDS011;22898;52.102;5.776;2024-01-07T12:38:13;2.40;;;1.30;;
36989;SDS011;22898;52.102;5.776;2024-01-07T12:40:39;1.25;;;0.88;;
36989;SDS011;22898;52.102;5.776;2024-01-07T12:43:04;0.60;;;0.60;;
36989;SDS011;22898;52.102;5.776;2024-01-07T12:45:33;1.58;;;0.95;;
36989;SDS011;22898;52.102;5.776;2024-01-07T12:48:00;1.17;;;0.95;;
36989;SDS011;22898;52.102;5.776;2024-01-07T12:50:27;1.50;;;1.15;;
36989;SDS011;22898;52.102;5.776;2024-01-07T12:52:55;1.48;;;0.77;;
36989;SDS011;22898;52.102;5.776;2024-01-07T12:55:21;1.27;;;1.08;;
36989;SDS011;22898;52.102;5.776;2024-01-07T12:57:47;3.42;;;1.08;;
36989;SDS011;22898;52.102;5.776;2024-01-07T13:00:14;5.40;;;1.15;;
36989;SDS011;22898;52.102;5.776;2024-01-07T13:02:40;1.35;;;0.88;;
36989;SDS011;22898;52.102;5.776;2024-01-07T13:05:06;1.10;;;0.82;;
36989;SDS011;22898;52.102;5.776;2024-01-07T13:07:32;1.13;;;1.00;;
36989;SDS011;22898;52.102;5.776;2024-01-07T13:09:58;1.17;;;0.90;;
36989;SDS011;22898;52.102;5.776;2024-01-07T13:12:23;1.33;;;1.20;;
36989;SDS011;22898;52.102;5.776;2024-01-07T13:14:50;1.08;;;0.90;;
36989;SDS011;22898;52.102;5.776;2024-01-07T13:17:15;1.70;;;0.90;;
36989;SDS011;22898;52.102;5.776;2024-01-07T13:19:41;3.58;;;1.15;;
36989;SDS011;22898;52.102;5.776;2024-01-07T13:22:07;2.47;;;1.05;;
36989;SDS011;22898;52.102;5.776;2024-01-07T13:24:34;1.20;;;1.02;;
36989;SDS011;22898;52.102;5.776;2024-01-07T13:27:00;1.65;;;1.10;;
36989;SDS011;22898;52.102;5.776;2024-01-07T13:29:26;1.88;;;0.98;;
36989;SDS011;22898;52.102;5.776;2024-01-07T13:31:51;4.18;;;0.98;;
36989;SDS011;22898;52.102;5.776;2024-01-07T13:34:17;0.90;;;0.85;;
36989;SDS011;22898;52.102;5.776;2024-01-07T13:36:43;0.60;;;0.60;;
36989;SDS011;22898;52.102;5.776;2024-01-07T13:39:09;2.38;;;1.00;;
36989;SDS011;22898;52.102;5.776;2024-01-07T13:41:35;0.90;;;0.90;;
36989;SDS011;22898;52.102;5.776;2024-01-07T13:44:02;1.35;;;1.05;;
36989;SDS011;22898;52.102;5.776;2024-01-07T13:46:30;0.68;;;0.65;;
36989;SDS011;22898;52.102;5.776;2024-01-07T13:48:56;1.80;;;1.40;;
36989;SDS011;22898;52.102;5.776;2024-01-07T13:51:21;2.05;;;1.10;;
36989;SDS011;22898;52.102;5.776;2024-01-07T13:53:47;3.05;;;1.40;;
36989;SDS011;22898;52.102;5.776;2024-01-07T13:56:13;5.35;;;1.20;;
36989;SDS011;22898;52.102;5.776;2024-01-07T13:58:38;0.98;;;0.85;;
36989;SDS011;22898;52.102;5.776;2024-01-07T14:01:04;3.20;;;0.98;;
36989;SDS011;22898;52.102;5.776;2024-01-07T14:03:33;1.67;;;1.10;;
36989;SDS011;22898;52.102;5.776;2024-01-07T14:05:59;3.22;;;0.95;;
36989;SDS011;22898;52.102;5.776;2024-01-07T14:08:28;1.75;;;1.10;;
36989;SDS011;22898;52.102;5.776;2024-01-07T14:10:53;0.57;;;0.57;;
36989;SDS011;22898;52.102;5.776;2024-01-07T14:13:19;0.80;;;0.80;;
36989;SDS011;22898;52.102;5.776;2024-01-07T14:15:45;0.93;;;0.70;;
36989;SDS011;22898;52.102;5.776;2024-01-07T14:18:10;2.28;;;1.15;;
36989;SDS011;22898;52.102;5.776;2024-01-07T14:20:40;5.93;;;0.85;;
36989;SDS011;22898;52.102;5.776;2024-01-07T14:23:07;0.75;;;0.60;;
36989;SDS011;22898;52.102;5.776;2024-01-07T14:25:32;1.40;;;0.88;;
36989;SDS011;22898;52.102;5.776;2024-01-07T14:27:58;2.53;;;1.45;;
36989;SDS011;22898;52.102;5.776;2024-01-07T14:30:24;1.55;;;1.38;;
36989;SDS011;22898;52.102;5.776;2024-01-07T14:32:49;2.35;;;1.17;;
36989;SDS011;22898;52.102;5.776;2024-01-07T14:35:15;4.13;;;1.15;;
36989;SDS011;22898;52.102;5.776;2024-01-07T14:37:41;1.48;;;1.02;;
36989;SDS011;22898;52.102;5.776;2024-01-07T14:40:07;3.45;;;1.80;;
36989;SDS011;22898;52.102;5.776;2024-01-07T14:42:33;1.15;;;1.02;;
36989;SDS011;22898;52.102;5.776;2024-01-07T14:44:59;2.50;;;1.15;;